Terminal Aerodrome Forecast
Issued by NWS

Home | Current Version | Previous Version | Text Only | Print | Product List | Glossary On
Versions: 1 2 3 4 5 6 7 8 9 10 11 12 13 14 15 16 17 18 19
571
FTUS44 KEWX 201131
TAFSSF
TAF
KSSF 201131Z 2012/2112 VRB03KT P6SM FEW012
     FM201500 17010KT P6SM SCT040
     FM210900 15005KT P6SM BKN050=

USA.gov is the U.S. government's official web portal to all federal, state and local government web resources and services.